EDHL/LBC METAR and TAF weather

Enter ICAO airport designator
Station Type Date Time Source
EDHL METAR 2020/07/14 18:50 UTC NOAA

EDHL 141850Z 18004KT 140V210 9999 -RA BKN045 15/15 Q1013


Station Type Date Time Source
EDHL Decoded METAR 2020/07/14 18:50 UTC NOAA

Luebeck-Blankensee, Germany (EDHL) 53-49N 010-42E 15M
Jul 14, 2020 - 02:50 PM EDT / 2020.07.14 1850 UTC
Wind: from the S (180 degrees) at 5 MPH (4 KT) (direction variable):0
Visibility: greater than 7 mile(s):0
Sky conditions: mostly cloudy
Weather: light rain
Temperature: 59 F (15 C)
Dew Point: 59 F (15 C)
Relative Humidity: 100%
Pressure (altimeter): 29.91 in. Hg (1013 hPa)
ob: EDHL 141850Z 18004KT 140V210 9999 -RA BKN045 15/15 Q1013
cycle: 19

Station Type Date Time Source
EDHL TAF 2010/02/22 14:20 UTC NOAA

METAR EDHL 221420Z 15004KT 110V180 9999 FEW039 SCT120 05/02 Q0990
RMK X

Example: see airport list